createdAt,value
2018-02-09T00:01:00.453Z,56.40
2018-02-09T00:03:30.071Z,63.13
2018-02-09T00:05:58.948Z,64.47
2018-02-09T00:08:27.176Z,54.10
2018-02-09T00:10:56.211Z,56.63
2018-02-09T00:13:25.792Z,53.20
2018-02-09T00:15:54.311Z,55.10
2018-02-09T00:18:22.594Z,51.75
2018-02-09T00:20:50.837Z,62.50
2018-02-09T00:23:19.082Z,64.75
2018-02-09T00:25:47.359Z,55.50
2018-02-09T00:28:15.632Z,55.63
2018-02-09T00:30:43.826Z,54.50
2018-02-09T00:33:12.098Z,55.88
2018-02-09T00:35:40.338Z,56.17
2018-02-09T00:38:09.716Z,56.10
2018-02-09T00:40:38.002Z,60.00
2018-02-09T00:43:07.605Z,56.60
2018-02-09T00:45:36.476Z,54.42
2018-02-09T00:48:04.751Z,54.63
2018-02-09T00:50:34.116Z,55.90
2018-02-09T00:53:02.344Z,53.95
2018-02-09T00:55:31.367Z,51.25
2018-02-09T00:58:00.368Z,54.95
2018-02-09T01:00:28.606Z,60.00
2018-02-09T01:02:56.872Z,58.72
2018-02-09T01:05:25.126Z,56.40
2018-02-09T01:07:54.868Z,53.53
2018-02-09T01:10:24.506Z,58.92
2018-02-09T01:12:53.026Z,56.37
2018-02-09T01:15:21.271Z,56.92
2018-02-09T01:17:49.570Z,58.78
2018-02-09T01:20:17.824Z,57.85
2018-02-09T01:22:47.387Z,59.22
2018-02-09T01:25:16.315Z,69.05
2018-02-09T01:27:44.556Z,69.53
2018-02-09T01:30:14.144Z,66.97
2018-02-09T01:32:43.048Z,59.80
2018-02-09T01:35:12.044Z,58.20
2018-02-09T01:37:40.272Z,56.28
2018-02-09T01:40:08.576Z,60.67
2018-02-09T01:42:38.156Z,61.17
2018-02-09T01:45:06.259Z,62.80
2018-02-09T01:47:34.551Z,61.75
2018-02-09T01:50:09.997Z,56.03
2018-02-09T01:52:38.905Z,52.30
2018-02-09T01:55:07.131Z,57.78
2018-02-09T01:57:36.128Z,57.85
2018-02-09T02:00:05.542Z,58.85
2018-02-09T02:02:33.782Z,56.95
2018-02-09T02:05:03.362Z,58.45
2018-02-09T02:07:32.286Z,60.72
2018-02-09T02:10:01.864Z,55.67
2018-02-09T02:12:31.324Z,63.05
2018-02-09T02:14:59.891Z,66.30
2018-02-09T02:17:28.148Z,72.62
2018-02-09T02:19:56.375Z,54.85
2018-02-09T02:22:26.165Z,60.35
2018-02-09T02:24:54.405Z,62.90
2018-02-09T02:27:22.677Z,64.80
2018-02-09T02:29:52.452Z,57.30
2018-02-09T02:32:20.699Z,62.05
2018-02-09T02:34:48.945Z,60.75
2018-02-09T02:37:18.215Z,57.30
2018-02-09T02:39:47.210Z,57.70
2018-02-09T02:42:15.440Z,63.67
2018-02-09T02:44:44.482Z,62.97
2018-02-09T02:47:13.849Z,55.83
2018-02-09T02:49:42.072Z,61.35
2018-02-09T02:52:11.492Z,50.80
2018-02-09T02:54:40.488Z,54.95
2018-02-09T02:57:08.733Z,56.42
2018-02-09T02:59:37.773Z,59.10
2018-02-09T03:02:06.000Z,57.58
2018-02-09T03:04:34.223Z,55.42
2018-02-09T03:07:02.885Z,55.60
2018-02-09T03:09:32.251Z,59.30
2018-02-09T03:12:00.480Z,54.72
2018-02-09T03:14:29.139Z,54.33
2018-02-09T03:16:57.372Z,61.03
2018-02-09T03:19:25.604Z,63.22
2018-02-09T03:21:55.227Z,61.20
2018-02-09T03:24:23.742Z,53.35
2018-02-09T03:26:53.498Z,60.92
2018-02-09T03:29:21.805Z,54.40
2018-02-09T03:31:50.051Z,53.97
2018-02-09T03:34:18.282Z,52.97
2018-02-09T03:36:47.922Z,51.92
2018-02-09T03:39:17.656Z,50.00
2018-02-09T03:41:47.257Z,51.13
2018-02-09T03:44:15.800Z,52.67
2018-02-09T03:46:44.032Z,59.83
2018-02-09T03:49:12.274Z,54.92
2018-02-09T03:51:40.556Z,57.40
2018-02-09T03:54:08.804Z,51.37
2018-02-09T03:56:37.036Z,50.45
2018-02-09T03:59:05.295Z,52.92
2018-02-09T04:01:34.667Z,53.38
2018-02-09T04:04:02.895Z,54.63
2018-02-09T04:06:31.564Z,53.47
2018-02-09T04:08:59.796Z,50.10
2018-02-09T04:11:28.023Z,55.55
2018-02-09T04:13:56.289Z,49.83
2018-02-09T04:16:25.280Z,53.87
2018-02-09T04:18:53.532Z,51.67
2018-02-09T04:21:23.162Z,52.42
2018-02-09T04:23:51.688Z,55.58
2018-02-09T04:26:21.281Z,55.80
2018-02-09T04:28:50.788Z,55.05
2018-02-09T04:31:20.285Z,56.90
2018-02-09T04:33:48.384Z,55.90
2018-02-09T04:36:18.421Z,55.47
2018-02-09T04:38:46.634Z,52.15
2018-02-09T04:41:15.624Z,51.50
2018-02-09T04:43:45.426Z,51.22
2018-02-09T04:46:15.021Z,50.55
2018-02-09T04:48:43.546Z,55.97
2018-02-09T04:51:13.287Z,54.50
2018-02-09T04:53:41.530Z,54.05
2018-02-09T04:56:09.772Z,54.25
2018-02-09T04:58:38.324Z,58.08
2018-02-09T05:01:07.330Z,54.17
2018-02-09T05:03:35.556Z,53.75
2018-02-09T05:06:03.835Z,55.53
2018-02-09T05:08:33.420Z,49.63
2018-02-09T05:11:01.523Z,47.47
2018-02-09T05:13:31.155Z,51.85
2018-02-09T05:16:00.025Z,47.72
2018-02-09T05:18:28.282Z,47.95
2018-02-09T05:20:56.569Z,50.47
2018-02-09T05:23:24.814Z,50.12
2018-02-09T05:25:53.053Z,50.75
2018-02-09T05:28:21.331Z,55.65
2018-02-09T05:30:49.564Z,46.10
2018-02-09T05:33:19.300Z,46.78
2018-02-09T05:35:50.283Z,50.42
2018-02-09T05:38:18.794Z,50.72
2018-02-09T05:40:48.931Z,49.15
2018-02-09T05:43:17.196Z,50.70
2018-02-09T05:45:45.429Z,51.40
2018-02-09T05:48:13.674Z,50.72
2018-02-09T05:50:41.954Z,51.17
2018-02-09T05:53:11.688Z,49.40
2018-02-09T05:55:41.267Z,50.45
2018-02-09T05:58:09.805Z,50.25
2018-02-09T06:00:38.031Z,50.95
2018-02-09T06:03:07.619Z,53.17
2018-02-09T06:05:36.896Z,49.38
2018-02-09T06:08:06.484Z,45.53
2018-02-09T06:10:34.979Z,51.30
2018-02-09T06:13:04.430Z,48.20
2018-02-09T06:15:33.789Z,52.15
2018-02-09T06:18:03.520Z,53.05
2018-02-09T06:20:33.064Z,51.90
2018-02-09T06:23:02.788Z,50.15
2018-02-09T06:25:32.255Z,47.85
2018-02-09T06:28:01.314Z,52.85
2018-02-09T06:30:29.559Z,58.35
2018-02-09T06:32:57.961Z,55.58
2018-02-09T06:35:27.583Z,53.50
2018-02-09T06:37:57.084Z,47.92
2018-02-09T06:40:25.969Z,49.78
2018-02-09T06:42:54.808Z,50.10
2018-02-09T06:45:24.163Z,50.38
2018-02-09T06:47:53.166Z,49.67
2018-02-09T06:50:22.796Z,45.45
2018-02-09T06:52:52.258Z,46.00
2018-02-09T06:55:21.132Z,54.20
2018-02-09T06:57:52.321Z,54.85
2018-02-09T07:00:21.914Z,45.17
2018-02-09T07:02:51.524Z,45.97
2018-02-09T07:05:19.783Z,47.47
2018-02-09T07:07:49.363Z,50.78
2018-02-09T07:10:18.996Z,48.22
2018-02-09T07:12:47.257Z,50.85
2018-02-09T07:15:15.500Z,51.20
2018-02-09T07:17:43.717Z,54.33
2018-02-09T07:20:17.137Z,50.67
2018-02-09T07:22:45.703Z,49.25
2018-02-09T07:25:14.699Z,52.88
2018-02-09T07:27:44.108Z,51.70
2018-02-09T07:30:13.688Z,50.60
2018-02-09T07:32:42.607Z,49.33
2018-02-09T07:35:12.236Z,50.78
2018-02-09T07:37:41.145Z,48.72
2018-02-09T07:40:10.376Z,50.35
2018-02-09T07:42:40.732Z,52.83
2018-02-09T07:45:10.303Z,55.60
2018-02-09T07:47:40.160Z,48.38
2018-02-09T07:50:08.820Z,49.47
2018-02-09T07:52:37.070Z,51.83
2018-02-09T07:55:05.311Z,49.80
2018-02-09T07:57:35.080Z,51.90
2018-02-09T08:00:04.659Z,47.50
2018-02-09T08:02:33.159Z,49.95
2018-02-09T08:05:01.570Z,56.13
2018-02-09T08:07:29.812Z,56.50
2018-02-09T08:09:58.051Z,54.50
2018-02-09T08:12:26.324Z,39.53
2018-02-09T08:14:55.944Z,47.08
2018-02-09T08:17:24.464Z,50.25
2018-02-09T08:19:54.090Z,60.60
2018-02-09T08:22:23.576Z,41.42
2018-02-09T08:24:53.071Z,47.45
2018-02-09T08:27:22.693Z,40.95
2018-02-09T08:29:50.822Z,42.60
2018-02-09T08:32:20.235Z,45.20
2018-02-09T08:34:49.280Z,50.45
2018-02-09T08:37:17.536Z,42.85
2018-02-09T08:39:46.925Z,43.92
2018-02-09T08:42:15.952Z,42.10
2018-02-09T08:44:45.540Z,46.33
2018-02-09T08:47:13.667Z,43.60
2018-02-09T08:49:41.971Z,47.00
2018-02-09T08:52:11.573Z,45.92
2018-02-09T08:54:41.027Z,42.03
2018-02-09T08:57:10.308Z,37.40
2018-02-09T08:59:38.541Z,44.95
2018-02-09T09:02:06.772Z,43.60
2018-02-09T09:04:36.175Z,46.00
2018-02-09T09:07:05.183Z,45.47
2018-02-09T09:09:33.438Z,45.35
2018-02-09T09:12:02.463Z,37.70
2018-02-09T09:14:30.696Z,101.07
2018-02-09T09:16:58.948Z,49.23
2018-02-09T09:19:28.753Z,46.40
2018-02-09T09:21:57.005Z,36.33
2018-02-09T09:24:25.262Z,39.63
2018-02-09T09:26:53.985Z,40.67
2018-02-09T09:29:23.789Z,40.50
2018-02-09T09:31:52.147Z,42.03
2018-02-09T09:34:20.416Z,42.20
2018-02-09T09:36:48.628Z,41.20
2018-02-09T09:39:18.375Z,45.70
2018-02-09T09:41:48.017Z,48.00
2018-02-09T09:44:17.486Z,43.93
2018-02-09T09:46:46.019Z,45.30
2018-02-09T09:49:15.272Z,46.93
2018-02-09T09:51:44.860Z,43.23
2018-02-09T09:54:14.341Z,42.60
2018-02-09T09:56:42.941Z,39.67
2018-02-09T09:59:12.675Z,44.10
2018-02-09T10:01:42.274Z,44.80
2018-02-09T10:04:11.557Z,44.27
2018-02-09T10:06:39.792Z,39.93
2018-02-09T10:09:08.020Z,44.60
2018-02-09T10:11:36.284Z,44.87
2018-02-09T10:14:05.651Z,44.10
2018-02-09T10:16:33.888Z,55.30
2018-02-09T10:19:02.380Z,48.83
2018-02-09T10:21:32.134Z,46.70
2018-02-09T10:24:01.766Z,50.17
2018-02-09T10:26:30.640Z,46.97
2018-02-09T10:28:58.886Z,40.63
2018-02-09T10:31:28.549Z,41.20
2018-02-09T10:33:58.028Z,44.93
2018-02-09T10:36:27.510Z,46.87
2018-02-09T10:38:56.438Z,50.50
2018-02-09T10:41:24.677Z,44.30
2018-02-09T10:43:54.434Z,51.73
2018-02-09T10:46:22.692Z,43.10
2018-02-09T10:48:50.921Z,40.53
2018-02-09T10:51:19.155Z,43.53
2018-02-09T10:53:47.420Z,43.67
2018-02-09T10:56:17.018Z,42.30
2018-02-09T10:58:45.895Z,43.60
2018-02-09T11:01:19.896Z,45.63
2018-02-09T11:03:49.480Z,42.07
2018-02-09T11:06:18.347Z,44.33
2018-02-09T11:08:47.990Z,43.33
2018-02-09T11:11:17.459Z,41.73
2018-02-09T11:13:45.961Z,45.70
2018-02-09T11:16:14.228Z,50.00
2018-02-09T11:18:42.464Z,47.90
2018-02-09T11:21:10.700Z,43.30
2018-02-09T11:23:40.476Z,45.70
2018-02-09T11:26:08.707Z,42.63
2018-02-09T11:28:36.953Z,49.97
2018-02-09T11:31:06.754Z,47.43
2018-02-09T11:33:35.390Z,46.80
2018-02-09T11:36:04.016Z,48.17
2018-02-09T11:38:33.649Z,46.17
2018-02-09T11:41:01.762Z,49.53
2018-02-09T11:43:30.013Z,46.43
2018-02-09T11:45:58.292Z,51.23
2018-02-09T11:48:26.531Z,50.10
2018-02-09T11:50:56.128Z,45.67
2018-02-09T11:53:25.777Z,40.17
2018-02-09T11:55:54.008Z,44.40
2018-02-09T11:58:23.601Z,51.90
2018-02-09T12:00:52.651Z,48.50
2018-02-09T12:03:22.045Z,44.37
2018-02-09T12:05:50.305Z,51.30
2018-02-09T12:08:18.599Z,49.60
2018-02-09T12:10:48.381Z,46.43
2018-02-09T12:13:17.015Z,43.20
2018-02-09T12:15:45.296Z,45.17
2018-02-09T12:18:13.547Z,43.00
2018-02-09T12:20:43.294Z,46.50
2018-02-09T12:23:12.913Z,46.87
2018-02-09T12:25:41.028Z,46.70
2018-02-09T12:28:10.622Z,48.77
2018-02-09T12:30:40.296Z,56.77
2018-02-09T12:33:09.891Z,43.40
2018-02-09T12:35:39.512Z,42.97
2018-02-09T12:38:09.195Z,47.80
2018-02-09T12:40:38.020Z,42.13
2018-02-09T12:43:07.626Z,41.23
2018-02-09T12:45:36.168Z,42.93
2018-02-09T12:48:04.404Z,45.57
2018-02-09T12:50:32.644Z,40.80
2018-02-09T12:53:00.950Z,40.67
2018-02-09T12:55:29.180Z,49.40
2018-02-09T12:57:57.412Z,46.80
2018-02-09T13:00:25.696Z,41.13
2018-02-09T13:02:55.436Z,39.37
2018-02-09T13:05:23.676Z,41.63
2018-02-09T13:07:53.304Z,39.83
2018-02-09T13:10:22.793Z,44.00
2018-02-09T13:13:04.260Z,42.63
2018-02-09T13:15:33.843Z,37.27
2018-02-09T13:18:03.461Z,41.10
2018-02-09T13:20:31.728Z,42.77
2018-02-09T13:23:11.636Z,45.53
2018-02-09T13:25:41.262Z,38.93
2018-02-09T13:28:22.014Z,39.37
2018-02-09T13:30:50.304Z,39.97
2018-02-09T13:33:27.479Z,41.30
2018-02-09T13:35:56.528Z,39.20
2018-02-09T13:38:24.768Z,43.43
2018-02-09T13:40:54.350Z,46.50
2018-02-09T13:43:23.276Z,46.27
2018-02-09T13:45:52.877Z,42.10
2018-02-09T13:48:21.409Z,39.47
2018-02-09T13:50:49.688Z,39.20
2018-02-09T13:53:17.937Z,42.50
2018-02-09T13:55:46.167Z,40.67
2018-02-09T13:58:15.790Z,45.33
2018-02-09T14:00:45.294Z,42.10
2018-02-09T14:03:15.766Z,51.87
2018-02-09T14:05:45.391Z,44.13
2018-02-09T14:08:14.872Z,39.10
2018-02-09T14:10:44.116Z,38.60
2018-02-09T14:13:12.384Z,43.77
2018-02-09T14:15:40.617Z,41.20
2018-02-09T14:18:10.211Z,43.40
2018-02-09T14:20:39.126Z,34.33
2018-02-09T14:23:07.355Z,37.30
2018-02-09T14:25:35.594Z,38.63
2018-02-09T14:28:05.594Z,35.23
2018-02-09T14:30:33.696Z,36.53
2018-02-09T14:33:03.279Z,37.90
2018-02-09T14:35:32.799Z,37.77
2018-02-09T14:38:02.266Z,39.97
2018-02-09T14:40:31.136Z,38.50
2018-02-09T14:42:59.407Z,37.20
2018-02-09T14:45:27.635Z,36.90
2018-02-09T14:47:55.878Z,39.57
2018-02-09T14:50:24.190Z,38.67
2018-02-09T14:52:52.531Z,40.13
2018-02-09T14:55:21.912Z,37.93
2018-02-09T14:57:50.469Z,40.50
2018-02-09T15:00:20.058Z,39.00
2018-02-09T15:02:48.572Z,46.90
2018-02-09T15:05:17.298Z,38.53
2018-02-09T15:07:47.033Z,41.00
2018-02-09T15:10:15.255Z,38.80
2018-02-09T15:12:43.528Z,40.00
2018-02-09T15:15:13.134Z,38.97
2018-02-09T15:17:42.592Z,44.60
2018-02-09T15:20:11.148Z,42.58
2018-02-09T15:22:40.755Z,39.90
2018-02-09T15:25:09.326Z,35.72
2018-02-09T15:27:37.947Z,36.45
2018-02-09T15:30:07.688Z,31.62
2018-02-09T15:32:35.954Z,29.85
2018-02-09T15:35:05.878Z,31.42
2018-02-09T15:37:35.666Z,33.45
2018-02-09T15:40:03.862Z,29.45
2018-02-09T15:42:32.140Z,29.73
2018-02-09T15:45:01.138Z,27.98
2018-02-09T15:47:30.523Z,25.70
2018-02-09T15:49:59.179Z,25.58
2018-02-09T15:52:29.480Z,26.10
2018-02-09T15:54:57.582Z,27.05
2018-02-09T15:57:27.194Z,23.75
2018-02-09T15:59:55.696Z,21.95
2018-02-09T16:02:23.942Z,25.48
2018-02-09T16:04:54.872Z,24.48
2018-02-09T16:07:23.402Z,24.98
2018-02-09T16:09:51.643Z,25.20
2018-02-09T16:12:21.437Z,24.55
2018-02-09T16:14:49.675Z,18.98
2018-02-09T16:17:18.826Z,21.90
2018-02-09T16:19:48.442Z,20.45
2018-02-09T16:22:18.072Z,20.40
2018-02-09T16:24:47.226Z,23.42
2018-02-09T16:27:17.131Z,21.27
2018-02-09T16:29:46.496Z,21.00
2018-02-09T16:32:14.750Z,17.25
2018-02-09T16:34:44.363Z,17.60
2018-02-09T16:37:13.832Z,19.75
2018-02-09T16:39:43.439Z,21.45
2018-02-09T16:42:12.183Z,20.20
2018-02-09T16:44:40.812Z,20.10
2018-02-09T16:47:09.052Z,19.83
2018-02-09T16:49:37.341Z,21.60
2018-02-09T16:52:05.573Z,23.95
2018-02-09T16:54:35.314Z,19.15
2018-02-09T16:57:04.927Z,21.30
2018-02-09T16:59:33.434Z,19.70
2018-02-09T17:02:01.664Z,19.83
2018-02-09T17:04:30.695Z,19.30
2018-02-09T17:07:00.082Z,19.25
2018-02-09T17:09:28.360Z,20.67
2018-02-09T17:11:56.616Z,20.90
2018-02-09T17:14:25.273Z,28.27
2018-02-09T17:16:55.008Z,19.80
2018-02-09T17:19:23.299Z,26.27
2018-02-09T17:21:52.900Z,21.52
2018-02-09T17:24:22.359Z,19.10
2018-02-09T17:26:51.895Z,16.85
2018-02-09T17:29:20.772Z,15.02
2018-02-09T17:31:50.381Z,19.52
2018-02-09T17:34:20.066Z,16.25
2018-02-09T17:36:49.337Z,19.87
2018-02-09T17:39:17.596Z,21.30
2018-02-09T17:41:45.860Z,20.37
2018-02-09T17:44:15.614Z,23.98
2018-02-09T17:46:44.240Z,20.05
2018-02-09T17:49:15.109Z,16.05
2018-02-09T17:51:44.705Z,17.42
2018-02-09T17:54:12.812Z,19.50
2018-02-09T17:56:42.427Z,21.50
2018-02-09T17:59:10.932Z,20.50
2018-02-09T18:01:39.164Z,21.25
2018-02-09T18:04:08.812Z,18.92
2018-02-09T18:06:38.423Z,17.73
2018-02-09T18:09:08.033Z,24.52
2018-02-09T18:11:37.027Z,19.98
2018-02-09T18:14:05.218Z,20.35
2018-02-09T18:16:33.449Z,19.05
2018-02-09T18:19:03.338Z,17.50
2018-02-09T18:21:32.822Z,16.48
2018-02-09T18:24:02.052Z,16.70
2018-02-09T18:26:30.320Z,18.77
2018-02-09T18:28:58.552Z,20.12
2018-02-09T18:31:38.591Z,26.85
2018-02-09T18:34:08.237Z,21.62
2018-02-09T18:36:36.308Z,23.38
2018-02-09T18:39:04.606Z,23.20
2018-02-09T18:41:32.837Z,19.87
2018-02-09T18:44:01.090Z,35.95
2018-02-09T18:46:30.703Z,31.05
2018-02-09T18:49:00.338Z,23.62
2018-02-09T18:51:28.569Z,21.73
2018-02-09T18:53:56.836Z,19.75
2018-02-09T18:56:25.078Z,18.52
2018-02-09T18:58:53.320Z,18.25
2018-02-09T19:01:21.618Z,20.50
2018-02-09T19:03:50.996Z,23.85
2018-02-09T19:06:19.243Z,20.27
2018-02-09T19:08:48.891Z,17.23
2018-02-09T19:11:17.776Z,19.37
2018-02-09T19:13:46.011Z,22.00
2018-02-09T19:16:14.298Z,19.80
2018-02-09T19:18:42.528Z,18.02
2018-02-09T19:21:12.111Z,20.60
2018-02-09T19:23:41.332Z,19.80
2018-02-09T19:26:10.038Z,17.00
2018-02-09T19:28:38.404Z,17.10
2018-02-09T19:31:08.208Z,20.62
2018-02-09T19:33:36.316Z,19.58
2018-02-09T19:36:04.684Z,29.83
2018-02-09T19:38:34.439Z,21.23
2018-02-09T19:41:02.927Z,18.55
2018-02-09T19:43:32.575Z,18.37
2018-02-09T19:46:01.755Z,21.55
2018-02-09T19:48:29.988Z,22.87
2018-02-09T19:50:58.219Z,17.92
2018-02-09T19:53:27.627Z,20.77
2018-02-09T19:55:55.924Z,17.05
2018-02-09T19:58:24.166Z,16.73
2018-02-09T20:00:53.796Z,19.00
2018-02-09T20:03:23.260Z,18.00
2018-02-09T20:05:51.784Z,17.00
2018-02-09T20:08:20.371Z,17.83
2018-02-09T20:10:50.129Z,20.02
2018-02-09T20:13:19.788Z,21.65
2018-02-09T20:15:48.328Z,20.12
2018-02-09T20:18:17.948Z,18.27
2018-02-09T20:20:46.512Z,17.05
2018-02-09T20:23:14.746Z,18.95
2018-02-09T20:25:42.975Z,16.70
2018-02-09T20:28:12.595Z,15.98
2018-02-09T20:30:42.065Z,16.87
2018-02-09T20:33:11.307Z,18.65
2018-02-09T20:35:39.575Z,16.25
2018-02-09T20:38:09.173Z,19.92
2018-02-09T20:40:38.056Z,17.48
2018-02-09T20:43:06.337Z,17.98
2018-02-09T20:45:34.568Z,16.10
2018-02-09T20:48:02.810Z,15.75
2018-02-09T20:50:32.423Z,17.40
2018-02-09T20:53:01.883Z,19.00
2018-02-09T20:55:31.347Z,19.80
2018-02-09T20:58:00.860Z,16.55
2018-02-09T21:00:30.437Z,27.85
2018-02-09T21:02:58.570Z,17.23
2018-02-09T21:05:27.227Z,17.80
2018-02-09T21:07:56.981Z,23.77
2018-02-09T21:10:25.779Z,23.02
2018-02-09T21:12:55.180Z,20.15
2018-02-09T21:15:23.427Z,24.58
2018-02-09T21:17:52.080Z,22.98
2018-02-09T21:20:21.869Z,17.92
2018-02-09T21:22:50.147Z,17.77
2018-02-09T21:25:18.428Z,17.20
2018-02-09T21:27:48.054Z,17.50
2018-02-09T21:30:16.560Z,17.45
2018-02-09T21:32:46.155Z,17.58
2018-02-09T21:35:15.646Z,22.85
2018-02-09T21:37:44.166Z,17.87
2018-02-09T21:40:12.416Z,50.05
2018-02-09T21:42:42.183Z,19.90
2018-02-09T21:45:10.495Z,26.70
2018-02-09T21:47:38.926Z,17.85
2018-02-09T21:50:08.556Z,27.48
2018-02-09T21:52:37.432Z,24.20
2018-02-09T21:55:05.804Z,17.95
2018-02-09T21:57:35.427Z,20.73
2018-02-09T22:00:04.895Z,20.88
2018-02-09T22:02:33.812Z,19.42
2018-02-09T22:05:03.621Z,22.80
2018-02-09T22:07:33.273Z,20.20
2018-02-09T22:10:01.393Z,17.75
2018-02-09T22:12:30.461Z,18.92
2018-02-09T22:14:59.863Z,18.17
2018-02-09T22:17:28.102Z,22.98
2018-02-09T22:19:56.355Z,16.90
2018-02-09T22:22:26.110Z,20.92
2018-02-09T22:24:54.359Z,17.20
2018-02-09T22:27:24.081Z,17.12
2018-02-09T22:29:53.009Z,18.50
2018-02-09T22:32:21.343Z,20.15
2018-02-09T22:34:51.135Z,19.50
2018-02-09T22:37:19.276Z,18.60
2018-02-09T22:39:47.522Z,19.17
2018-02-09T22:42:15.798Z,20.33
2018-02-09T22:44:44.025Z,19.30
2018-02-09T22:47:13.836Z,19.62
2018-02-09T22:49:43.530Z,18.30
2018-02-09T22:52:13.016Z,18.70
2018-02-09T22:54:41.568Z,21.30
2018-02-09T22:57:11.579Z,19.40
2018-02-09T22:59:39.985Z,19.30
2018-02-09T23:02:08.247Z,18.60
2018-02-09T23:04:38.036Z,18.73
2018-02-09T23:07:06.297Z,22.37
2018-02-09T23:09:36.050Z,20.77
2018-02-09T23:12:04.315Z,20.83
2018-02-09T23:14:33.931Z,23.12
2018-02-09T23:17:02.439Z,19.55
2018-02-09T23:19:30.794Z,20.17
2018-02-09T23:21:59.028Z,19.48
2018-02-09T23:24:28.677Z,19.20
2018-02-09T23:26:57.652Z,20.83
2018-02-09T23:29:25.980Z,18.90
2018-02-09T23:31:55.200Z,18.00
2018-02-09T23:34:24.819Z,19.10
2018-02-09T23:36:54.431Z,19.25
2018-02-09T23:39:23.451Z,19.25
2018-02-09T23:41:51.722Z,17.60
2018-02-09T23:44:21.312Z,17.65
2018-02-09T23:46:50.388Z,17.98
2018-02-09T23:49:20.280Z,17.83
2018-02-09T23:51:48.513Z,19.48
2018-02-09T23:54:18.313Z,18.73
2018-02-09T23:56:47.360Z,18.42
2018-02-09T23:59:16.727Z,19.70
